sensor_id;sensor_type;location;lat;lon;timestamp;pressure;altitude;pressure_sealevel;temperature;humidity
51849;BME280;38952;51.090;-1.832;2023-04-29T00:00:48;100533.28;;;8.85;97.54
51849;BME280;38952;51.090;-1.832;2023-04-29T00:03:13;100521.75;;;8.78;97.58
51849;BME280;38952;51.090;-1.832;2023-04-29T00:05:41;100527.50;;;8.82;97.72
51849;BME280;38952;51.090;-1.832;2023-04-29T00:08:06;100537.09;;;8.84;97.08
51849;BME280;38952;51.090;-1.832;2023-04-29T00:10:32;100536.56;;;8.87;97.51
51849;BME280;38952;51.090;-1.832;2023-04-29T00:12:57;100534.94;;;8.86;97.17
51849;BME280;38952;51.090;-1.832;2023-04-29T00:15:23;100544.84;;;8.93;97.25
51849;BME280;38952;51.090;-1.832;2023-04-29T00:17:48;100540.72;;;8.90;96.91
51849;BME280;38952;51.090;-1.832;2023-04-29T00:20:14;100549.28;;;8.99;97.13
51849;BME280;38952;51.090;-1.832;2023-04-29T00:22:42;100552.00;;;8.99;96.82
51849;BME280;38952;51.090;-1.832;2023-04-29T00:25:08;100542.16;;;8.98;96.67
51849;BME280;38952;51.090;-1.832;2023-04-29T00:27:33;100545.50;;;9.00;96.38
51849;BME280;38952;51.090;-1.832;2023-04-29T00:29:59;100535.91;;;8.97;96.49
51849;BME280;38952;51.090;-1.832;2023-04-29T00:32:25;100556.97;;;9.02;96.51
51849;BME280;38952;51.090;-1.832;2023-04-29T00:34:50;100554.75;;;8.99;96.78
51849;BME280;38952;51.090;-1.832;2023-04-29T00:37:18;100551.38;;;8.91;96.46
51849;BME280;38952;51.090;-1.832;2023-04-29T00:39:53;100544.72;;;8.82;96.54
51849;BME280;38952;51.090;-1.832;2023-04-29T00:42:21;100540.25;;;8.76;96.82
51849;BME280;38952;51.090;-1.832;2023-04-29T00:44:46;100544.38;;;8.79;96.79
51849;BME280;38952;51.090;-1.832;2023-04-29T00:47:12;100544.06;;;8.75;96.64
51849;BME280;38952;51.090;-1.832;2023-04-29T00:49:38;100540.25;;;8.76;96.74
51849;BME280;38952;51.090;-1.832;2023-04-29T00:52:04;100533.31;;;8.68;97.29
51849;BME280;38952;51.090;-1.832;2023-04-29T00:54:33;100535.28;;;8.73;97.56
51849;BME280;38952;51.090;-1.832;2023-04-29T00:57:00;100534.31;;;8.79;97.27
51849;BME280;38952;51.090;-1.832;2023-04-29T00:59:27;100542.22;;;8.81;97.18
51849;BME280;38952;51.090;-1.832;2023-04-29T01:02:01;100536.94;;;8.74;97.26
51849;BME280;38952;51.090;-1.832;2023-04-29T01:04:30;100548.50;;;8.81;97.69
51849;BME280;38952;51.090;-1.832;2023-04-29T01:10:09;100548.91;;;8.73;97.54
51849;BME280;38952;51.090;-1.832;2023-04-29T01:12:44;100536.16;;;8.56;97.85
51849;BME280;38952;51.090;-1.832;2023-04-29T01:15:27;100550.84;;;8.55;98.36
51849;BME280;38952;51.090;-1.832;2023-04-29T01:17:59;100546.41;;;8.49;98.69
51849;BME280;38952;51.090;-1.832;2023-04-29T01:20:30;100540.75;;;8.39;98.45
51849;BME280;38952;51.090;-1.832;2023-04-29T01:22:56;100539.78;;;8.45;98.89
51849;BME280;38952;51.090;-1.832;2023-04-29T01:25:22;100542.41;;;8.40;98.63
51849;BME280;38952;51.090;-1.832;2023-04-29T01:28:07;100556.13;;;8.45;99.01
51849;BME280;38952;51.090;-1.832;2023-04-29T01:30:49;100563.50;;;8.45;98.79
51849;BME280;38952;51.090;-1.832;2023-04-29T01:33:40;100549.53;;;8.41;98.73
51849;BME280;38952;51.090;-1.832;2023-04-29T01:36:46;100560.09;;;8.37;98.61
51849;BME280;38952;51.090;-1.832;2023-04-29T01:42:09;100563.81;;;8.31;98.68
51849;BME280;38952;51.090;-1.832;2023-04-29T01:44:40;100553.66;;;8.27;98.77
51849;BME280;38952;51.090;-1.832;2023-04-29T01:47:12;100559.59;;;8.24;98.61
51849;BME280;38952;51.090;-1.832;2023-04-29T01:49:38;100562.88;;;8.26;98.83
51849;BME280;38952;51.090;-1.832;2023-04-29T01:52:04;100560.16;;;8.26;98.59
51849;BME280;38952;51.090;-1.832;2023-04-29T01:54:29;100550.56;;;8.23;98.72
51849;BME280;38952;51.090;-1.832;2023-04-29T01:56:56;100550.69;;;8.28;98.77
51849;BME280;38952;51.090;-1.832;2023-04-29T01:59:22;100551.50;;;8.29;98.94
51849;BME280;38952;51.090;-1.832;2023-04-29T02:01:57;100559.75;;;8.34;99.29
51849;BME280;38952;51.090;-1.832;2023-04-29T02:04:23;100567.44;;;8.37;98.65
51849;BME280;38952;51.090;-1.832;2023-04-29T02:06:49;100555.94;;;8.35;98.78
51849;BME280;38952;51.090;-1.832;2023-04-29T02:09:17;100570.72;;;8.39;99.03
51849;BME280;38952;51.090;-1.832;2023-04-29T02:11:42;100569.06;;;8.38;98.89
51849;BME280;38952;51.090;-1.832;2023-04-29T02:14:07;100565.22;;;8.34;99.30
51849;BME280;38952;51.090;-1.832;2023-04-29T02:16:33;100569.00;;;8.33;99.45
51849;BME280;38952;51.090;-1.832;2023-04-29T02:18:58;100564.06;;;8.30;99.51
51849;BME280;38952;51.090;-1.832;2023-04-29T02:21:24;100567.84;;;8.29;99.84
51849;BME280;38952;51.090;-1.832;2023-04-29T02:23:51;100566.44;;;8.26;99.69
51849;BME280;38952;51.090;-1.832;2023-04-29T02:26:18;100563.28;;;8.17;100.00
51849;BME280;38952;51.090;-1.832;2023-04-29T02:28:44;100563.28;;;8.17;100.00
51849;BME280;38952;51.090;-1.832;2023-04-29T02:31:11;100562.72;;;8.15;100.00
51849;BME280;38952;51.090;-1.832;2023-04-29T02:33:37;100558.34;;;8.14;100.00
51849;BME280;38952;51.090;-1.832;2023-04-29T02:36:08;100564.13;;;8.18;100.00
51849;BME280;38952;51.090;-1.832;2023-04-29T02:38:35;100565.69;;;8.14;100.00
51849;BME280;38952;51.090;-1.832;2023-04-29T02:41:01;100562.38;;;8.12;100.00
51849;BME280;38952;51.090;-1.832;2023-04-29T02:43:26;100557.91;;;8.06;100.00
51849;BME280;38952;51.090;-1.832;2023-04-29T02:45:55;100571.28;;;8.07;100.00
51849;BME280;38952;51.090;-1.832;2023-04-29T02:48:20;100558.09;;;7.99;100.00
51849;BME280;38952;51.090;-1.832;2023-04-29T02:50:45;100558.91;;;7.99;100.00
51849;BME280;38952;51.090;-1.832;2023-04-29T02:53:11;100562.69;;;7.98;100.00
51849;BME280;38952;51.090;-1.832;2023-04-29T02:55:38;100571.69;;;7.99;100.00
51849;BME280;38952;51.090;-1.832;2023-04-29T02:58:04;100572.53;;;7.99;100.00
51849;BME280;38952;51.090;-1.832;2023-04-29T03:00:29;100574.44;;;7.99;100.00
51849;BME280;38952;51.090;-1.832;2023-04-29T03:02:55;100563.69;;;7.92;100.00
51849;BME280;38952;51.090;-1.832;2023-04-29T03:05:21;100573.81;;;7.97;100.00
51849;BME280;38952;51.090;-1.832;2023-04-29T03:07:47;100570.53;;;7.95;100.00
51849;BME280;38952;51.090;-1.832;2023-04-29T03:10:12;100582.84;;;7.97;100.00
51849;BME280;38952;51.090;-1.832;2023-04-29T03:12:45;100580.25;;;7.91;100.00
51849;BME280;38952;51.090;-1.832;2023-04-29T03:15:10;100572.03;;;7.74;100.00
51849;BME280;38952;51.090;-1.832;2023-04-29T03:17:36;100585.09;;;7.72;100.00
51849;BME280;38952;51.090;-1.832;2023-04-29T03:20:03;100583.59;;;7.64;100.00
51849;BME280;38952;51.090;-1.832;2023-04-29T03:22:28;100585.22;;;7.65;100.00
51849;BME280;38952;51.090;-1.832;2023-04-29T03:24:54;100560.44;;;7.49;100.00
51849;BME280;38952;51.090;-1.832;2023-04-29T03:27:19;100583.47;;;7.59;100.00
51849;BME280;38952;51.090;-1.832;2023-04-29T03:29:44;100587.50;;;7.56;100.00
51849;BME280;38952;51.090;-1.832;2023-04-29T03:32:12;100588.81;;;7.54;100.00
51849;BME280;38952;51.090;-1.832;2023-04-29T03:34:37;100592.59;;;7.53;100.00
51849;BME280;38952;51.090;-1.832;2023-04-29T03:37:03;100603.25;;;7.54;100.00
51849;BME280;38952;51.090;-1.832;2023-04-29T03:39:28;100599.72;;;7.54;100.00
51849;BME280;38952;51.090;-1.832;2023-04-29T03:42:00;100595.81;;;7.49;100.00
51849;BME280;38952;51.090;-1.832;2023-04-29T03:44:25;100602.31;;;7.48;100.00
51849;BME280;38952;51.090;-1.832;2023-04-29T03:46:53;100613.81;;;7.50;100.00
51849;BME280;38952;51.090;-1.832;2023-04-29T03:49:19;100615.91;;;7.48;100.00
51849;BME280;38952;51.090;-1.832;2023-04-29T03:51:45;100617.47;;;7.44;100.00
51849;BME280;38952;51.090;-1.832;2023-04-29T03:54:11;100627.16;;;7.40;100.00
51849;BME280;38952;51.090;-1.832;2023-04-29T03:56:37;100628.13;;;7.34;100.00
51849;BME280;38952;51.090;-1.832;2023-04-29T03:59:06;100618.09;;;7.34;100.00
51849;BME280;38952;51.090;-1.832;2023-04-29T04:01:31;100618.78;;;7.30;100.00
51849;BME280;38952;51.090;-1.832;2023-04-29T04:03:57;100629.44;;;7.31;100.00
51849;BME280;38952;51.090;-1.832;2023-04-29T04:06:22;100632.06;;;7.26;100.00
51849;BME280;38952;51.090;-1.832;2023-04-29T04:08:48;100639.66;;;7.24;100.00
51849;BME280;38952;51.090;-1.832;2023-04-29T04:11:13;100638.09;;;7.16;100.00
51849;BME280;38952;51.090;-1.832;2023-04-29T04:13:42;100646.50;;;7.15;100.00
51849;BME280;38952;51.090;-1.832;2023-04-29T04:16:11;100641.66;;;7.05;100.00
51849;BME280;38952;51.090;-1.832;2023-04-29T04:18:37;100648.50;;;7.08;100.00
51849;BME280;38952;51.090;-1.832;2023-04-29T04:21:09;100649.22;;;7.03;100.00
51849;BME280;38952;51.090;-1.832;2023-04-29T04:23:35;100651.38;;;7.01;100.00
51849;BME280;38952;51.090;-1.832;2023-04-29T04:26:02;100656.66;;;6.96;100.00
51849;BME280;38952;51.090;-1.832;2023-04-29T04:28:27;100654.91;;;6.90;100.00
51849;BME280;38952;51.090;-1.832;2023-04-29T04:30:53;100660.91;;;6.92;100.00
51849;BME280;38952;51.090;-1.832;2023-04-29T04:33:18;100654.19;;;6.82;100.00
51849;BME280;38952;51.090;-1.832;2023-04-29T04:35:44;100660.09;;;6.79;100.00
51849;BME280;38952;51.090;-1.832;2023-04-29T04:38:09;100665.78;;;6.90;100.00
51849;BME280;38952;51.090;-1.832;2023-04-29T04:40:41;100663.28;;;6.88;100.00
51849;BME280;38952;51.090;-1.832;2023-04-29T04:43:07;100665.78;;;6.90;100.00
51849;BME280;38952;51.090;-1.832;2023-04-29T04:45:32;100664.13;;;6.89;100.00
51849;BME280;38952;51.090;-1.832;2023-04-29T04:47:58;100673.47;;;6.93;100.00
51849;BME280;38952;51.090;-1.832;2023-04-29T04:50:23;100674.41;;;6.87;100.00
51849;BME280;38952;51.090;-1.832;2023-04-29T04:52:49;100669.31;;;6.78;100.00
51849;BME280;38952;51.090;-1.832;2023-04-29T04:55:14;100682.41;;;6.81;100.00
51849;BME280;38952;51.090;-1.832;2023-04-29T04:57:40;100684.56;;;6.79;100.00
51849;BME280;38952;51.090;-1.832;2023-04-29T05:00:26;100688.09;;;6.80;100.00
51849;BME280;38952;51.090;-1.832;2023-04-29T05:02:51;100690.56;;;6.81;100.00
51849;BME280;38952;51.090;-1.832;2023-04-29T05:05:17;100686.44;;;6.79;100.00
51849;BME280;38952;51.090;-1.832;2023-04-29T05:07:42;100686.09;;;6.75;100.00
51849;BME280;38952;51.090;-1.832;2023-04-29T05:10:08;100692.00;;;6.72;100.00
51849;BME280;38952;51.090;-1.832;2023-04-29T05:12:34;100692.34;;;6.76;100.00
51849;BME280;38952;51.090;-1.832;2023-04-29T05:15:00;100698.63;;;6.76;100.00
51849;BME280;38952;51.090;-1.832;2023-04-29T05:17:25;100702.28;;;6.82;100.00
51849;BME280;38952;51.090;-1.832;2023-04-29T05:19:51;100669.53;;;6.65;100.00
51849;BME280;38952;51.090;-1.832;2023-04-29T05:22:17;100704.41;;;6.92;100.00
51849;BME280;38952;51.090;-1.832;2023-04-29T05:24:42;100712.72;;;6.97;100.00
51849;BME280;38952;51.090;-1.832;2023-04-29T05:27:08;100706.81;;;7.00;100.00
51849;BME280;38952;51.090;-1.832;2023-04-29T05:29:36;100708.56;;;7.06;100.00
51849;BME280;38952;51.090;-1.832;2023-04-29T05:32:03;100706.69;;;7.19;100.00
51849;BME280;38952;51.090;-1.832;2023-04-29T05:34:29;100708.13;;;7.33;99.97
51849;BME280;38952;51.090;-1.832;2023-04-29T05:36:54;100701.94;;;7.49;99.81
51849;BME280;38952;51.090;-1.832;2023-04-29T05:39:21;100708.31;;;7.67;99.50
51849;BME280;38952;51.090;-1.832;2023-04-29T05:41:47;100708.03;;;7.80;98.35
51849;BME280;38952;51.090;-1.832;2023-04-29T05:44:12;100716.97;;;7.93;98.13
51849;BME280;38952;51.090;-1.832;2023-04-29T05:46:38;100706.78;;;8.00;97.70
51849;BME280;38952;51.090;-1.832;2023-04-29T05:49:03;100726.72;;;8.17;97.53
51849;BME280;38952;51.090;-1.832;2023-04-29T05:51:29;100720.91;;;8.26;97.41
51849;BME280;38952;51.090;-1.832;2023-04-29T05:53:56;100719.13;;;8.31;97.10
51849;BME280;38952;51.090;-1.832;2023-04-29T05:56:23;100719.16;;;8.48;96.51
51849;BME280;38952;51.090;-1.832;2023-04-29T05:58:49;100728.13;;;8.61;96.78
51849;BME280;38952;51.090;-1.832;2023-04-29T06:01:14;100730.22;;;8.70;95.79
51849;BME280;38952;51.090;-1.832;2023-04-29T06:03:41;100727.00;;;8.73;95.52
51849;BME280;38952;51.090;-1.832;2023-04-29T06:06:09;100733.94;;;8.81;95.41
51849;BME280;38952;51.090;-1.832;2023-04-29T06:08:36;100719.22;;;8.82;95.58
51849;BME280;38952;51.090;-1.832;2023-04-29T06:11:11;100730.78;;;9.06;95.04
51849;BME280;38952;51.090;-1.832;2023-04-29T06:13:37;100726.84;;;9.14;95.26
51849;BME280;38952;51.090;-1.832;2023-04-29T06:16:02;100742.34;;;9.31;95.09
51849;BME280;38952;51.090;-1.832;2023-04-29T06:18:28;100732.00;;;9.33;94.55
51849;BME280;38952;51.090;-1.832;2023-04-29T06:20:53;100720.53;;;9.31;94.21
51849;BME280;38952;51.090;-1.832;2023-04-29T06:23:18;100753.31;;;9.53;94.39
51849;BME280;38952;51.090;-1.832;2023-04-29T06:25:44;100750.59;;;9.53;94.04
51849;BME280;38952;51.090;-1.832;2023-04-29T06:28:09;100743.72;;;9.50;94.05
51849;BME280;38952;51.090;-1.832;2023-04-29T06:30:35;100732.59;;;9.35;94.00
51849;BME280;38952;51.090;-1.832;2023-04-29T06:33:00;100748.44;;;9.55;93.95
51849;BME280;38952;51.090;-1.832;2023-04-29T06:35:26;100741.78;;;9.68;93.76
51849;BME280;38952;51.090;-1.832;2023-04-29T06:38:08;100728.84;;;9.80;92.60
51849;BME280;38952;51.090;-1.832;2023-04-29T06:40:34;100734.88;;;10.04;91.66
51849;BME280;38952;51.090;-1.832;2023-04-29T06:43:00;100737.59;;;10.26;90.65
51849;BME280;38952;51.090;-1.832;2023-04-29T06:45:26;100752.09;;;10.49;89.62
51849;BME280;38952;51.090;-1.832;2023-04-29T06:47:52;100764.56;;;10.67;89.24
51849;BME280;38952;51.090;-1.832;2023-04-29T06:50:17;100761.38;;;10.75;88.50
51849;BME280;38952;51.090;-1.832;2023-04-29T06:52:43;100771.09;;;10.93;87.54
51849;BME280;38952;51.090;-1.832;2023-04-29T06:55:08;100775.13;;;11.13;87.13
51849;BME280;38952;51.090;-1.832;2023-04-29T06:57:35;100772.22;;;11.30;86.71
51849;BME280;38952;51.090;-1.832;2023-04-29T07:00:01;100777.00;;;11.45;86.50
51849;BME280;38952;51.090;-1.832;2023-04-29T07:02:26;100772.16;;;11.57;86.11
51849;BME280;38952;51.090;-1.832;2023-04-29T07:04:52;100775.81;;;11.73;85.29
51849;BME280;38952;51.090;-1.832;2023-04-29T07:07:17;100783.28;;;11.88;84.99
51849;BME280;38952;51.090;-1.832;2023-04-29T07:09:43;100789.97;;;12.02;84.67
51849;BME280;38952;51.090;-1.832;2023-04-29T07:12:08;100786.47;;;12.17;84.11
51849;BME280;38952;51.090;-1.832;2023-04-29T07:14:34;100786.81;;;12.31;83.85
51849;BME280;38952;51.090;-1.832;2023-04-29T07:17:01;100789.03;;;12.50;82.87
51849;BME280;38952;51.090;-1.832;2023-04-29T07:19:27;100794.31;;;12.67;82.95
51849;BME280;38952;51.090;-1.832;2023-04-29T07:21:52;100795.69;;;12.85;82.24
51849;BME280;38952;51.090;-1.832;2023-04-29T07:24:18;100795.75;;;13.05;81.81
51849;BME280;38952;51.090;-1.832;2023-04-29T07:26:51;100794.09;;;13.25;80.84
51849;BME280;38952;51.090;-1.832;2023-04-29T07:29:26;100786.38;;;13.58;80.15
51849;BME280;38952;51.090;-1.832;2023-04-29T07:31:51;100790.72;;;13.95;79.35
51849;BME280;38952;51.090;-1.832;2023-04-29T07:34:24;100793.88;;;14.28;78.08
51849;BME280;38952;51.090;-1.832;2023-04-29T07:36:51;100787.72;;;14.52;77.52
51849;BME280;38952;51.090;-1.832;2023-04-29T07:39:19;100806.03;;;14.77;76.68
51849;BME280;38952;51.090;-1.832;2023-04-29T07:41:52;100801.28;;;14.88;76.09
51849;BME280;38952;51.090;-1.832;2023-04-29T07:44:20;100803.84;;;15.13;74.97
51849;BME280;38952;51.090;-1.832;2023-04-29T07:46:49;100786.09;;;15.30;75.08
51849;BME280;38952;51.090;-1.832;2023-04-29T07:49:19;100795.69;;;15.67;74.29
51849;BME280;38952;51.090;-1.832;2023-04-29T07:51:48;100794.66;;;16.11;73.17
51849;BME280;38952;51.090;-1.832;2023-04-29T07:54:14;100807.41;;;16.50;71.76
51849;BME280;38952;51.090;-1.832;2023-04-29T07:56:42;100809.94;;;16.85;70.47
51849;BME280;38952;51.090;-1.832;2023-04-29T07:59:08;100805.66;;;16.98;69.35
51849;BME280;38952;51.090;-1.832;2023-04-29T08:01:33;100805.13;;;17.15;68.76
51849;BME280;38952;51.090;-1.832;2023-04-29T08:03:58;100799.63;;;17.28;68.22
51849;BME280;38952;51.090;-1.832;2023-04-29T08:06:24;100813.44;;;17.61;67.65
51849;BME280;38952;51.090;-1.832;2023-04-29T08:08:49;100809.81;;;17.80;66.32
51849;BME280;38952;51.090;-1.832;2023-04-29T08:11:19;100805.75;;;18.05;65.42
51849;BME280;38952;51.090;-1.832;2023-04-29T08:13:45;100821.50;;;18.46;64.67
51849;BME280;38952;51.090;-1.832;2023-04-29T08:16:11;100830.28;;;18.62;63.53
51849;BME280;38952;51.090;-1.832;2023-04-29T08:18:42;100825.94;;;18.84;63.01
51849;BME280;38952;51.090;-1.832;2023-04-29T08:21:07;100810.63;;;19.00;61.55
51849;BME280;38952;51.090;-1.832;2023-04-29T08:23:35;100830.28;;;19.35;60.73
51849;BME280;38952;51.090;-1.832;2023-04-29T08:26:03;100834.13;;;19.48;60.14
51849;BME280;38952;51.090;-1.832;2023-04-29T08:28:29;100832.16;;;19.71;59.66
51849;BME280;38952;51.090;-1.832;2023-04-29T08:30:55;100837.94;;;19.84;59.21
51849;BME280;38952;51.090;-1.832;2023-04-29T08:33:20;100831.75;;;19.87;58.47
51849;BME280;38952;51.090;-1.832;2023-04-29T08:35:46;100841.13;;;19.68;56.67
51849;BME280;38952;51.090;-1.832;2023-04-29T08:38:11;100838.13;;;19.33;56.65
51849;BME280;38952;51.090;-1.832;2023-04-29T08:40:42;100849.44;;;19.23;56.17
51849;BME280;38952;51.090;-1.832;2023-04-29T08:43:09;100833.66;;;19.10;57.08
51849;BME280;38952;51.090;-1.832;2023-04-29T08:45:35;100852.59;;;19.30;56.55
51849;BME280;38952;51.090;-1.832;2023-04-29T08:48:06;100846.22;;;19.52;56.08
51849;BME280;38952;51.090;-1.832;2023-04-29T08:50:37;100830.72;;;19.51;54.36
51849;BME280;38952;51.090;-1.832;2023-04-29T08:53:05;100856.06;;;20.21;53.56
51849;BME280;38952;51.090;-1.832;2023-04-29T08:55:34;100839.31;;;20.53;52.97
51849;BME280;38952;51.090;-1.832;2023-04-29T08:58:01;100835.06;;;20.47;51.52
51849;BME280;38952;51.090;-1.832;2023-04-29T09:00:26;100866.75;;;20.46;49.99
51849;BME280;38952;51.090;-1.832;2023-04-29T09:02:53;100856.66;;;20.01;50.24
51849;BME280;38952;51.090;-1.832;2023-04-29T09:05:20;100858.53;;;20.23;50.39
51849;BME280;38952;51.090;-1.832;2023-04-29T09:07:47;100867.25;;;20.39;49.79
51849;BME280;38952;51.090;-1.832;2023-04-29T09:10:15;100870.53;;;20.50;49.54
51849;BME280;38952;51.090;-1.832;2023-04-29T09:12:42;100855.13;;;21.01;49.31
51849;BME280;38952;51.090;-1.832;2023-04-29T09:15:08;100878.28;;;21.84;47.08
51849;BME280;38952;51.090;-1.832;2023-04-29T09:17:49;100883.09;;;22.61;46.87
51849;BME280;38952;51.090;-1.832;2023-04-29T09:22:50;100884.03;;;23.37;44.13
51849;BME280;38952;51.090;-1.832;2023-04-29T09:25:16;100883.50;;;23.77;44.23
51849;BME280;38952;51.090;-1.832;2023-04-29T09:27:42;100878.84;;;24.64;42.90
51849;BME280;38952;51.090;-1.832;2023-04-29T09:30:08;100881.94;;;27.36;37.83
51849;BME280;38952;51.090;-1.832;2023-04-29T09:32:37;100868.03;;;30.80;33.02
51849;BME280;38952;51.090;-1.832;2023-04-29T09:35:22;100883.66;;;31.44;31.45
51849;BME280;38952;51.090;-1.832;2023-04-29T09:37:54;100887.41;;;31.77;31.40
51849;BME280;38952;51.090;-1.832;2023-04-29T10:06:15;100866.53;;;39.83;20.99
51849;BME280;38952;51.090;-1.832;2023-04-29T10:55:08;100852.63;;;40.99;16.59
51849;BME280;38952;51.090;-1.832;2023-04-29T10:58:04;100867.16;;;38.93;17.15
51849;BME280;38952;51.090;-1.832;2023-04-29T11:17:26;100846.53;;;44.60;13.77
51849;BME280;38952;51.090;-1.832;2023-04-29T11:20:12;100843.47;;;41.35;15.43
51849;BME280;38952;51.090;-1.832;2023-04-29T11:22:38;100849.31;;;42.97;15.43
51849;BME280;38952;51.090;-1.832;2023-04-29T11:25:05;100860.69;;;44.73;14.12
51849;BME280;38952;51.090;-1.832;2023-04-29T11:27:33;100851.25;;;46.45;13.30
51849;BME280;38952;51.090;-1.832;2023-04-29T11:30:00;100855.38;;;47.43;12.36
51849;BME280;38952;51.090;-1.832;2023-04-29T11:32:27;100853.88;;;48.68;12.30
51849;BME280;38952;51.090;-1.832;2023-04-29T11:34:53;100857.38;;;50.33;9.72
51849;BME280;38952;51.090;-1.832;2023-04-29T11:37:24;100838.75;;;49.89;10.29
51849;BME280;38952;51.090;-1.832;2023-04-29T11:39:58;100818.97;;;44.20;12.75
51849;BME280;38952;51.090;-1.832;2023-04-29T11:42:24;100829.22;;;40.78;15.25
51849;BME280;38952;51.090;-1.832;2023-04-29T11:44:58;100817.91;;;40.75;15.63
51849;BME280;38952;51.090;-1.832;2023-04-29T11:47:30;100794.81;;;41.00;16.76
51849;BME280;38952;51.090;-1.832;2023-04-29T11:50:07;100831.00;;;44.43;14.45
51849;BME280;38952;51.090;-1.832;2023-04-29T11:52:35;100832.84;;;44.85;12.73
51849;BME280;38952;51.090;-1.832;2023-04-29T11:55:02;100825.50;;;45.14;12.87
51849;BME280;38952;51.090;-1.832;2023-04-29T11:57:28;100805.84;;;46.51;13.40
51849;BME280;38952;51.090;-1.832;2023-04-29T11:59:56;100809.78;;;48.41;12.53
51849;BME280;38952;51.090;-1.832;2023-04-29T12:02:28;100828.06;;;48.93;10.27
51849;BME280;38952;51.090;-1.832;2023-04-29T12:04:57;100825.91;;;49.61;10.52
51849;BME280;38952;51.090;-1.832;2023-04-29T12:07:26;100814.59;;;49.35;10.43
51849;BME280;38952;51.090;-1.832;2023-04-29T12:09:51;100814.00;;;50.29;10.56
51849;BME280;38952;51.090;-1.832;2023-04-29T12:12:17;100802.72;;;48.65;10.07
51849;BME280;38952;51.090;-1.832;2023-04-29T12:14:51;100813.41;;;47.70;11.32
51849;BME280;38952;51.090;-1.832;2023-04-29T12:17:17;100813.41;;;48.25;10.58
51849;BME280;38952;51.090;-1.832;2023-04-29T12:19:43;100807.47;;;48.74;9.92
51849;BME280;38952;51.090;-1.832;2023-04-29T12:22:09;100813.72;;;47.72;9.63
51849;BME280;38952;51.090;-1.832;2023-04-29T12:24:38;100822.28;;;47.18;10.55
51849;BME280;38952;51.090;-1.832;2023-04-29T12:27:07;100809.47;;;45.63;10.94
51849;BME280;38952;51.090;-1.832;2023-04-29T12:29:34;100801.78;;;44.50;12.12
51849;BME280;38952;51.090;-1.832;2023-04-29T12:32:00;100805.59;;;44.71;12.00
51849;BME280;38952;51.090;-1.832;2023-04-29T12:34:30;100806.78;;;45.24;11.65
51849;BME280;38952;51.090;-1.832;2023-04-29T12:36:59;100800.22;;;45.09;11.46
51849;BME280;38952;51.090;-1.832;2023-04-29T12:39:26;100805.53;;;45.46;11.78
51849;BME280;38952;51.090;-1.832;2023-04-29T12:41:56;100812.75;;;47.12;11.04
51849;BME280;38952;51.090;-1.832;2023-04-29T12:44:23;100804.28;;;47.02;10.95
51849;BME280;38952;51.090;-1.832;2023-04-29T12:46:49;100800.50;;;46.96;11.12
51849;BME280;38952;51.090;-1.832;2023-04-29T12:49:16;100787.53;;;47.18;10.39
51849;BME280;38952;51.090;-1.832;2023-04-29T12:51:43;100800.13;;;47.47;10.71
51849;BME280;38952;51.090;-1.832;2023-04-29T12:54:09;100799.28;;;49.06;10.53
51849;BME280;38952;51.090;-1.832;2023-04-29T12:56:34;100802.75;;;50.09;10.02
51849;BME280;38952;51.090;-1.832;2023-04-29T12:59:09;100798.19;;;49.55;9.43
51849;BME280;38952;51.090;-1.832;2023-04-29T13:01:37;100792.16;;;48.62;9.73
51849;BME280;38952;51.090;-1.832;2023-04-29T13:04:03;100787.84;;;48.29;10.46
51849;BME280;38952;51.090;-1.832;2023-04-29T13:06:30;100790.28;;;49.50;10.66
51849;BME280;38952;51.090;-1.832;2023-04-29T13:08:56;100793.75;;;50.12;9.47
51849;BME280;38952;51.090;-1.832;2023-04-29T13:11:22;100789.63;;;49.91;9.53
51849;BME280;38952;51.090;-1.832;2023-04-29T13:13:47;100789.84;;;50.82;9.78
51849;BME280;38952;51.090;-1.832;2023-04-29T13:16:13;100796.28;;;51.36;9.26
51849;BME280;38952;51.090;-1.832;2023-04-29T13:18:38;100789.38;;;50.78;9.21
51849;BME280;38952;51.090;-1.832;2023-04-29T13:21:03;100791.03;;;50.26;8.76
51849;BME280;38952;51.090;-1.832;2023-04-29T13:23:29;100789.75;;;50.16;9.26
51849;BME280;38952;51.090;-1.832;2023-04-29T13:25:55;100798.75;;;50.65;8.99
51849;BME280;38952;51.090;-1.832;2023-04-29T13:28:21;100785.78;;;50.60;9.21
51849;BME280;38952;51.090;-1.832;2023-04-29T13:30:46;100783.09;;;50.21;8.99
51849;BME280;38952;51.090;-1.832;2023-04-29T13:33:12;100788.75;;;48.69;9.43
51849;BME280;38952;51.090;-1.832;2023-04-29T13:35:37;100779.97;;;48.41;9.56
51849;BME280;38952;51.090;-1.832;2023-04-29T13:38:05;100785.75;;;47.69;10.00
51849;BME280;38952;51.090;-1.832;2023-04-29T13:40:31;100790.13;;;47.53;9.58
51849;BME280;38952;51.090;-1.832;2023-04-29T13:42:56;100771.16;;;43.07;11.80
51849;BME280;38952;51.090;-1.832;2023-04-29T13:45:21;100776.31;;;39.01;15.37
51849;BME280;38952;51.090;-1.832;2023-04-29T13:47:47;100761.78;;;38.23;15.64
51849;BME280;38952;51.090;-1.832;2023-04-29T13:50:12;100770.75;;;36.66;17.22
51849;BME280;38952;51.090;-1.832;2023-04-29T13:52:38;100765.56;;;35.46;18.54
51849;BME280;38952;51.090;-1.832;2023-04-29T13:55:03;100756.97;;;38.50;16.96
51849;BME280;38952;51.090;-1.832;2023-04-29T13:57:29;100763.13;;;40.51;15.87
51849;BME280;38952;51.090;-1.832;2023-04-29T13:59:54;100766.78;;;43.21;14.65
51849;BME280;38952;51.090;-1.832;2023-04-29T14:02:27;100765.19;;;45.87;13.50
51849;BME280;38952;51.090;-1.832;2023-04-29T14:04:52;100761.13;;;45.08;11.40
51849;BME280;38952;51.090;-1.832;2023-04-29T14:07:18;100756.19;;;41.14;13.54
51849;BME280;38952;51.090;-1.832;2023-04-29T14:09:43;100754.38;;;38.10;15.86
51849;BME280;38952;51.090;-1.832;2023-04-29T14:12:09;100748.34;;;35.57;17.98
51849;BME280;38952;51.090;-1.832;2023-04-29T14:14:34;100745.09;;;33.41;20.19
51849;BME280;38952;51.090;-1.832;2023-04-29T14:17:00;100746.47;;;31.72;22.23
51849;BME280;38952;51.090;-1.832;2023-04-29T14:19:25;100744.03;;;32.03;22.81
51849;BME280;38952;51.090;-1.832;2023-04-29T14:21:51;100751.53;;;32.78;22.24